Ignace, Canada
Current Conditions -  °F | °C
As of 8:00 PM on Saturday 22 Nov 2014 (Local Time) from CYXL Reporting Station
Overcast Overcast  
Wind Chill: 21°   Ceiling: 1400
Heat Index: 27°   Visibility: 15mi
Dew Point: 23°   Wind: 5mph
Humidity: 86%   Direction: 120°ESE
Pressure: 29.58"   Gusts: NA
Location:  49.42°N, 91.67°W
Report Text: CYXL 230200Z 12004KT 080V160 15SM OVC014 M03/M05 A2958 RMK SC8 SLP039
Loading
Personal Weather Stations






























Interactive Weather Map New forecast layout! Learn more

10-Day Weather Forecast

Advertisements
Track Severe Weather on mobile